Airfield :
LOGIN :

Register | Disclaimer

   EN    FR    IT 

 










Legend :    VFR   Marginal VFR   IFR   Intensive IFR   Very Intensive IFR
Visi :
Ceiling :
>= 8 km
>= 3000ft
5 to 8 km
1000 to 3000 ft
1500m to 5 km
500 to 1000 ft
800 to 1500m
200 to 500 ft
< 800m
< 200 ft
Symbols :   Thunderstorms  Fog  Heavy snow  Heavy precipitations  Wind > 20 kt
SIGMETs :     Misc.  Thunderstorms  Icing  Turbulence  Mountain Waves  Volcanic Ashes







- Airport Elevation : 1197 ft
- IATA code : SPM


ETAD - Spangdahlem Ab

CURRENT METAR :
  • 221811Z AUTO 29007KT 9999 FEW060 14/06 A3031 RMK AO2 SLP255 $

EXPIRED METARs :
  • 221756Z AUTO 29007KT 9999 BKN060 15/06 A3031 RMK AO2 SLP255 T01450061 10158 20136 53002 $
  • 221656Z AUTO 31007KT 9999 FEW065 14/05 A3031 RMK AO2 SLP257 T01380054 $
  • 221556Z AUTO 27010G15KT 9999 FEW041 BKN055 16/06 A3030 RMK AO2 SLP253 T01550060 $
  • 221541Z AUTO 29010KT 9999 BKN042 BKN050 15/06 A3030 RMK AO2 SLP253 $

TAF AMD TAF ETAD
Valid from the 22 at 14:00 until the 23 at 17:00 UTC


221447Z 2214/2317 32010G15KT 9999 BKN035 QNH3021INS
BECMG 2223/2224 VRB06KT 9999 BKN020 QNH3026INS
BECMG 2308/2309 34006KT 9999 BKN030 QNH3027INS TX18/2311Z TN08/2302Z
No reported NOTAMs for that airfield.



MET'MAP, your aeronautical weather chart ! - Copyright ORBIFLY December 2007 - Disclaimer

ORBIFLY MET'MAP TEAM :

Programming & Development : Alexandra Zaïnal
Concept & Development : Baudouin d'Aumeries
Co-Development & Prog : Marc-Olivier Méhu
Technical & hardware support : Manuel Goepfert

Contact : metmap@orbifly.com




SOURCES & CREDITS :

   NOAA